createdAt,value
2023-01-26T00:01:21.412Z,102147.38
2023-01-26T00:03:49.153Z,102145.41
2023-01-26T00:06:20.575Z,102138.50
2023-01-26T00:08:53.502Z,102151.69
2023-01-26T00:11:24.846Z,102154.13
2023-01-26T00:13:51.910Z,102151.53
2023-01-26T00:16:19.484Z,102150.59
2023-01-26T00:18:46.808Z,102147.03
2023-01-26T00:21:17.722Z,102138.44
2023-01-26T00:23:45.512Z,102137.53
2023-01-26T00:26:17.459Z,102145.63
2023-01-26T00:28:45.033Z,102140.47
2023-01-26T00:31:22.431Z,102152.34
2023-01-26T00:33:49.852Z,102149.03
2023-01-26T00:36:16.675Z,102146.75
2023-01-26T00:38:43.546Z,102140.00
2023-01-26T00:41:30.896Z,102140.31
2023-01-26T00:43:58.064Z,102145.09
2023-01-26T00:46:25.004Z,102142.69
2023-01-26T00:48:52.096Z,102128.84
2023-01-26T00:51:18.961Z,102141.25
2023-01-26T00:53:45.768Z,102133.22
2023-01-26T00:56:14.850Z,102134.00
2023-01-26T00:58:42.388Z,102142.75
2023-01-26T01:01:09.594Z,102139.22
2023-01-26T01:03:36.439Z,102136.63
2023-01-26T01:06:03.377Z,102135.75
2023-01-26T01:08:30.128Z,102147.38
2023-01-26T01:11:06.322Z,102148.47
2023-01-26T01:13:33.430Z,102144.88
2023-01-26T01:16:00.319Z,102146.75
2023-01-26T01:18:27.191Z,102149.59
2023-01-26T01:20:53.959Z,102165.69
2023-01-26T01:23:20.810Z,102161.38
2023-01-26T01:25:47.789Z,102167.50
2023-01-26T01:28:14.729Z,102162.22
2023-01-26T01:30:41.573Z,102169.38
2023-01-26T01:33:08.458Z,102167.56
2023-01-26T01:35:35.966Z,102165.84
2023-01-26T01:38:02.874Z,102175.50
2023-01-26T01:40:29.760Z,102166.63
2023-01-26T01:42:56.562Z,102167.44
2023-01-26T01:45:26.220Z,102162.09
2023-01-26T01:48:04.141Z,102161.91
2023-01-26T01:50:39.541Z,102177.09
2023-01-26T01:53:13.829Z,102174.19
2023-01-26T01:55:42.278Z,102172.31
2023-01-26T01:58:09.775Z,102172.06
2023-01-26T02:00:36.591Z,102171.69
2023-01-26T02:03:15.182Z,102164.63
2023-01-26T02:06:23.784Z,102171.47
2023-01-26T02:08:56.418Z,102173.09
2023-01-26T02:11:32.262Z,102170.19
2023-01-26T02:14:01.244Z,102178.06
2023-01-26T02:16:28.265Z,102175.25
2023-01-26T02:18:55.084Z,102173.44
2023-01-26T02:21:24.357Z,102172.19
2023-01-26T02:24:03.691Z,102173.19
2023-01-26T02:26:34.574Z,102177.41
2023-01-26T02:29:04.193Z,102174.59
2023-01-26T02:31:31.603Z,102179.88
2023-01-26T02:33:58.465Z,102176.16
2023-01-26T02:36:27.633Z,102184.19
2023-01-26T02:39:22.516Z,102185.16
2023-01-26T02:42:10.003Z,102179.63
2023-01-26T02:44:39.391Z,102181.38
2023-01-26T02:47:15.469Z,102173.66
2023-01-26T02:49:50.546Z,102172.38
2023-01-26T02:52:27.878Z,102181.50
2023-01-26T02:55:14.625Z,102189.59
2023-01-26T02:57:42.175Z,102192.84
2023-01-26T03:00:24.491Z,102198.34
2023-01-26T03:02:54.135Z,102200.88
2023-01-26T03:05:21.158Z,102201.00
2023-01-26T03:07:48.441Z,102202.75
2023-01-26T03:10:18.556Z,102212.59
2023-01-26T03:12:46.440Z,102210.00
2023-01-26T03:15:31.525Z,102206.38
2023-01-26T03:18:36.226Z,102195.34
2023-01-26T03:21:28.061Z,102190.78
2023-01-26T03:24:13.781Z,102187.97
2023-01-26T03:26:59.239Z,102204.47
2023-01-26T03:29:27.102Z,102201.97
2023-01-26T03:31:54.452Z,102200.25
2023-01-26T03:34:21.896Z,102201.97
2023-01-26T03:36:49.587Z,102205.50
2023-01-26T03:39:34.971Z,102198.34
2023-01-26T03:42:20.803Z,102210.63
2023-01-26T03:45:06.038Z,102203.69
2023-01-26T03:47:53.650Z,102205.66
2023-01-26T03:50:39.431Z,102204.88
2023-01-26T03:53:36.186Z,102205.13
2023-01-26T03:56:22.076Z,102208.66
2023-01-26T03:58:54.429Z,102210.69
2023-01-26T04:01:28.314Z,102217.84
2023-01-26T04:04:16.542Z,102218.75
2023-01-26T04:07:05.005Z,102226.97
2023-01-26T04:09:36.876Z,102226.78
2023-01-26T04:12:04.740Z,102232.31
2023-01-26T04:14:50.815Z,102232.13
2023-01-26T04:17:37.776Z,102234.00
2023-01-26T04:20:25.072Z,102248.28
2023-01-26T04:22:52.435Z,102249.44
2023-01-26T04:25:22.018Z,102244.22
2023-01-26T04:27:48.832Z,102244.38
2023-01-26T04:30:17.540Z,102243.75
2023-01-26T04:32:46.370Z,102246.19
2023-01-26T04:35:13.738Z,102247.94
2023-01-26T04:37:40.848Z,102241.06
2023-01-26T04:40:09.377Z,102248.94
2023-01-26T04:42:36.523Z,102249.09
2023-01-26T04:45:03.993Z,102250.03
2023-01-26T04:47:30.848Z,102257.84
2023-01-26T04:49:58.034Z,102251.75
2023-01-26T04:52:24.825Z,102256.94
2023-01-26T04:54:51.618Z,102257.31
2023-01-26T04:57:21.261Z,102258.03
2023-01-26T04:59:48.021Z,102262.47
2023-01-26T05:02:15.263Z,102261.56
2023-01-26T05:04:42.116Z,102259.78
2023-01-26T05:07:09.063Z,102257.69
2023-01-26T05:09:35.928Z,102257.38
2023-01-26T05:12:22.867Z,102262.59
2023-01-26T05:14:49.629Z,102265.25
2023-01-26T05:17:16.388Z,102270.91
2023-01-26T05:19:43.554Z,102273.34
2023-01-26T05:22:12.422Z,102280.66
2023-01-26T05:24:39.615Z,102275.41
2023-01-26T05:27:21.527Z,102280.66
2023-01-26T05:29:50.105Z,102272.56
2023-01-26T05:32:17.897Z,102272.63
2023-01-26T05:34:46.098Z,102276.91
2023-01-26T05:37:14.943Z,102269.81
2023-01-26T05:39:42.372Z,102271.63
2023-01-26T05:42:09.355Z,102270.59
2023-01-26T05:44:36.177Z,102274.31
2023-01-26T05:47:03.118Z,102280.38
2023-01-26T05:49:29.987Z,102285.00
2023-01-26T05:51:57.166Z,102288.53
2023-01-26T05:54:23.981Z,102283.84
2023-01-26T05:56:53.428Z,102293.81
2023-01-26T05:59:20.230Z,102293.06
2023-01-26T06:01:47.036Z,102280.50
2023-01-26T06:04:14.073Z,102281.94
2023-01-26T06:06:40.984Z,102289.19
2023-01-26T06:09:07.774Z,102296.25
2023-01-26T06:11:34.866Z,102307.81
2023-01-26T06:14:01.669Z,102310.41
2023-01-26T06:16:28.708Z,102310.81
2023-01-26T06:18:55.952Z,102304.31
2023-01-26T06:21:22.733Z,102306.84
2023-01-26T06:23:49.537Z,102310.41
2023-01-26T06:26:16.384Z,102304.25
2023-01-26T06:28:43.349Z,102314.03
2023-01-26T06:31:11.004Z,102306.94
2023-01-26T06:33:39.008Z,102306.94
2023-01-26T06:36:10.185Z,102301.75
2023-01-26T06:38:37.699Z,102311.97
2023-01-26T06:41:07.587Z,102314.75
2023-01-26T06:43:35.988Z,102307.66
2023-01-26T06:46:04.773Z,102313.72
2023-01-26T06:48:34.740Z,102308.25
2023-01-26T06:51:21.711Z,102309.47
2023-01-26T06:53:56.759Z,102309.41
2023-01-26T06:56:25.066Z,102310.19
2023-01-26T06:58:52.208Z,102304.78
2023-01-26T07:01:21.246Z,102303.03
2023-01-26T07:03:49.615Z,102311.69
2023-01-26T07:06:16.572Z,102314.56
2023-01-26T07:08:43.753Z,102319.06
2023-01-26T07:11:11.708Z,102326.28
2023-01-26T07:13:39.387Z,102329.63
2023-01-26T07:16:10.717Z,102325.34
2023-01-26T07:18:38.458Z,102326.06
2023-01-26T07:21:09.128Z,102314.66
2023-01-26T07:23:36.182Z,102318.94
2023-01-26T07:26:03.211Z,102324.41
2023-01-26T07:28:30.776Z,102323.56
2023-01-26T07:30:58.883Z,102325.44
2023-01-26T07:33:25.925Z,102330.84
2023-01-26T07:35:54.225Z,102326.59
2023-01-26T07:38:21.210Z,102342.75
2023-01-26T07:40:48.290Z,102345.56
2023-01-26T07:43:17.899Z,102342.09
2023-01-26T07:45:51.682Z,102349.25
2023-01-26T07:48:20.964Z,102346.66
2023-01-26T07:50:48.708Z,102341.25
2023-01-26T07:53:19.586Z,102341.31
2023-01-26T07:55:47.352Z,102344.69
2023-01-26T07:58:14.465Z,102344.94
2023-01-26T08:00:41.575Z,102345.66
2023-01-26T08:03:08.430Z,102351.06
2023-01-26T08:05:37.160Z,102354.53
2023-01-26T08:08:04.610Z,102365.16
2023-01-26T08:10:32.127Z,102371.22
2023-01-26T08:13:02.473Z,102361.41
2023-01-26T08:15:29.609Z,102378.94
2023-01-26T08:17:56.691Z,102379.75
2023-01-26T08:20:23.903Z,102377.81
2023-01-26T08:22:50.741Z,102379.63
2023-01-26T08:25:17.578Z,102370.34
2023-01-26T08:27:44.328Z,102379.44
2023-01-26T08:30:12.868Z,102375.69
2023-01-26T08:32:39.976Z,102379.31
2023-01-26T08:35:07.693Z,102380.59
2023-01-26T08:37:34.614Z,102381.50
2023-01-26T08:40:01.367Z,102383.28
2023-01-26T08:42:28.320Z,102383.06
2023-01-26T08:44:55.264Z,102381.97
2023-01-26T08:47:22.089Z,102379.00
2023-01-26T08:49:48.816Z,102381.53
2023-01-26T08:52:16.828Z,102384.94
2023-01-26T08:54:43.644Z,102382.03
2023-01-26T08:57:10.581Z,102378.44
2023-01-26T08:59:37.360Z,102391.44
2023-01-26T09:02:04.248Z,102392.16
2023-01-26T09:04:31.108Z,102402.66
2023-01-26T09:06:57.877Z,102396.31
2023-01-26T09:09:24.957Z,102397.91
2023-01-26T09:11:55.985Z,102400.34
2023-01-26T09:14:24.107Z,102397.66
2023-01-26T09:16:51.002Z,102399.97
2023-01-26T09:19:17.821Z,102400.91
2023-01-26T09:21:44.779Z,102397.00
2023-01-26T09:24:11.770Z,102398.66
2023-01-26T09:26:38.963Z,102391.41
2023-01-26T09:29:05.808Z,102402.09
2023-01-26T09:31:32.715Z,102398.13
2023-01-26T09:33:59.910Z,102401.25
2023-01-26T09:36:26.772Z,102410.53
2023-01-26T09:38:54.248Z,102395.44
2023-01-26T09:41:45.128Z,102408.03
2023-01-26T09:44:20.661Z,102407.16
2023-01-26T09:47:01.385Z,102409.47
2023-01-26T09:50:01.373Z,102411.97
2023-01-26T09:52:36.892Z,102414.50
2023-01-26T09:55:16.200Z,102407.25
2023-01-26T09:58:05.436Z,102409.44
2023-01-26T10:00:35.387Z,102401.09
2023-01-26T10:03:39.935Z,102394.53
2023-01-26T10:06:29.674Z,102406.50
2023-01-26T10:09:01.638Z,102402.63
2023-01-26T10:11:43.705Z,102410.56
2023-01-26T10:14:21.942Z,102422.78
2023-01-26T10:16:51.872Z,102427.84
2023-01-26T10:20:10.162Z,102433.81
2023-01-26T10:22:45.745Z,102441.50
2023-01-26T10:25:21.977Z,102438.81
2023-01-26T10:27:49.702Z,102450.47
2023-01-26T10:30:18.613Z,102444.16
2023-01-26T10:32:50.934Z,102442.00
2023-01-26T10:35:22.426Z,102435.69
2023-01-26T10:37:49.984Z,102437.34
2023-01-26T10:40:17.802Z,102428.78
2023-01-26T10:42:57.849Z,102440.06
2023-01-26T10:45:31.471Z,102440.56
2023-01-26T10:48:16.471Z,102434.59
2023-01-26T10:50:44.500Z,102439.69
2023-01-26T10:53:29.867Z,102429.66
2023-01-26T10:56:15.022Z,102436.56
2023-01-26T10:58:50.335Z,102425.06
2023-01-26T11:01:18.963Z,102430.19
2023-01-26T11:04:06.940Z,102430.44
2023-01-26T11:06:35.562Z,102433.66
2023-01-26T11:09:19.752Z,102444.88
2023-01-26T11:12:05.999Z,102432.16
2023-01-26T11:14:35.009Z,102436.06
2023-01-26T11:17:15.391Z,102433.09
2023-01-26T11:20:01.981Z,102434.53
2023-01-26T11:22:36.957Z,102436.09
2023-01-26T11:25:43.510Z,102427.66
2023-01-26T11:28:44.204Z,102430.00
2023-01-26T11:31:31.509Z,102426.81
2023-01-26T11:34:23.516Z,102427.00
2023-01-26T11:37:15.553Z,102419.81
2023-01-26T11:39:45.140Z,102412.91
2023-01-26T11:43:01.707Z,102414.59
2023-01-26T11:45:38.551Z,102414.69
2023-01-26T11:48:22.850Z,102410.00
2023-01-26T11:51:05.661Z,102410.78
2023-01-26T11:53:57.828Z,102402.38
2023-01-26T11:57:00.036Z,102397.69
2023-01-26T12:00:29.595Z,102388.28
2023-01-26T12:03:06.441Z,102376.31
2023-01-26T12:05:56.400Z,102383.34
2023-01-26T12:08:42.085Z,102384.88
2023-01-26T12:11:30.223Z,102386.09
2023-01-26T12:14:02.917Z,102382.31
2023-01-26T12:16:49.178Z,102370.47
2023-01-26T12:19:40.796Z,102377.13
2023-01-26T12:22:26.842Z,102369.63
2023-01-26T12:25:24.675Z,102385.09
2023-01-26T12:28:02.288Z,102380.84
2023-01-26T12:30:37.108Z,102384.13
2023-01-26T12:33:04.074Z,102380.53
2023-01-26T12:36:08.631Z,102382.22
2023-01-26T12:39:31.584Z,102373.19
2023-01-26T12:42:04.051Z,102372.56
2023-01-26T12:44:38.202Z,102350.09
2023-01-26T12:47:15.427Z,102362.13
2023-01-26T12:50:43.712Z,102354.25
2023-01-26T12:53:31.631Z,102357.78
2023-01-26T12:56:10.527Z,102347.44
2023-01-26T12:58:45.500Z,102346.47
2023-01-26T13:01:20.379Z,102346.47
2023-01-26T13:04:05.082Z,102342.03
2023-01-26T13:06:32.084Z,102340.13
2023-01-26T13:09:23.773Z,102338.59
2023-01-26T13:11:57.215Z,102355.09
2023-01-26T13:14:25.273Z,102345.97
2023-01-26T13:16:52.441Z,102351.25
2023-01-26T13:19:44.854Z,102354.81
2023-01-26T13:22:24.041Z,102341.84
2023-01-26T13:25:14.921Z,102338.94
2023-01-26T13:27:55.778Z,102337.44
2023-01-26T13:30:22.760Z,102342.72
2023-01-26T13:32:49.559Z,102351.09
2023-01-26T13:35:23.680Z,102357.44
2023-01-26T13:37:58.453Z,102353.88
2023-01-26T13:40:38.358Z,102359.00
2023-01-26T13:43:27.928Z,102357.47
2023-01-26T13:46:22.466Z,102352.09
2023-01-26T13:48:54.471Z,102363.03
2023-01-26T13:51:28.549Z,102353.97
2023-01-26T13:54:04.581Z,102357.47
2023-01-26T13:56:35.183Z,102363.03
2023-01-26T13:59:07.421Z,102360.53
2023-01-26T14:01:37.185Z,102366.59
2023-01-26T14:04:09.653Z,102378.44
2023-01-26T14:06:38.664Z,102370.50
2023-01-26T14:09:11.973Z,102379.34
2023-01-26T14:11:38.973Z,102373.81
2023-01-26T14:14:06.817Z,102372.66
2023-01-26T14:16:36.707Z,102375.22
2023-01-26T14:19:16.466Z,102374.25
2023-01-26T14:22:00.297Z,102367.69
2023-01-26T14:24:31.878Z,102376.44
2023-01-26T14:26:59.023Z,102368.78
2023-01-26T14:29:29.183Z,102371.16
2023-01-26T14:32:00.448Z,102371.06
2023-01-26T14:34:30.798Z,102366.66
2023-01-26T14:37:15.801Z,102366.53
2023-01-26T14:39:45.056Z,102378.28
2023-01-26T14:42:18.029Z,102376.84
2023-01-26T14:44:45.406Z,102377.63
2023-01-26T14:47:30.420Z,102381.66
2023-01-26T14:50:04.021Z,102377.91
2023-01-26T14:52:35.835Z,102368.22
2023-01-26T14:55:23.210Z,102369.19
2023-01-26T14:57:52.167Z,102370.72
2023-01-26T15:00:27.487Z,102374.56
2023-01-26T15:02:58.149Z,102367.25
2023-01-26T15:05:35.426Z,102366.28
2023-01-26T15:08:19.734Z,102372.22
2023-01-26T15:11:22.531Z,102370.91
2023-01-26T15:13:55.412Z,102381.47
2023-01-26T15:16:26.649Z,102373.59
2023-01-26T15:19:03.086Z,102379.72
2023-01-26T15:21:40.717Z,102383.59
2023-01-26T15:24:15.140Z,102368.53
2023-01-26T15:26:43.072Z,102378.22
2023-01-26T15:29:36.312Z,102374.56
2023-01-26T15:32:03.229Z,102373.91
2023-01-26T15:34:36.427Z,102378.31
2023-01-26T15:37:32.838Z,102372.22
2023-01-26T15:39:59.922Z,102370.50
2023-01-26T15:42:30.322Z,102374.16
2023-01-26T15:44:57.691Z,102376.84
2023-01-26T15:47:24.562Z,102374.91
2023-01-26T15:49:51.586Z,102365.03
2023-01-26T15:52:26.044Z,102368.88
2023-01-26T15:54:54.333Z,102361.97
2023-01-26T15:57:21.769Z,102365.53
2023-01-26T15:59:48.583Z,102369.28
2023-01-26T16:02:18.636Z,102377.25
2023-01-26T16:04:45.941Z,102367.94
2023-01-26T16:07:15.885Z,102362.28
2023-01-26T16:09:43.170Z,102353.34
2023-01-26T16:12:25.893Z,102363.53
2023-01-26T16:14:58.134Z,102362.88
2023-01-26T16:17:25.004Z,102346.41
2023-01-26T16:19:51.935Z,102349.22
2023-01-26T16:22:18.917Z,102350.38
2023-01-26T16:24:46.955Z,102349.50
2023-01-26T16:27:13.836Z,102354.97
2023-01-26T16:29:40.809Z,102353.94
2023-01-26T16:32:28.426Z,102350.78
2023-01-26T16:34:55.259Z,102356.06
2023-01-26T16:37:22.063Z,102348.94
2023-01-26T16:39:48.822Z,102352.69
2023-01-26T16:42:19.508Z,102368.94
2023-01-26T16:44:46.663Z,102352.13
2023-01-26T16:47:13.655Z,102358.56
2023-01-26T16:49:40.461Z,102349.34
2023-01-26T16:52:10.116Z,102344.63
2023-01-26T16:54:36.966Z,102335.63
2023-01-26T16:57:04.152Z,102350.81
2023-01-26T16:59:30.963Z,102349.06
2023-01-26T17:01:58.026Z,102346.56
2023-01-26T17:04:25.074Z,102349.47
2023-01-26T17:06:51.895Z,102343.69
2023-01-26T17:09:18.799Z,102348.97
2023-01-26T17:11:45.717Z,102349.38
2023-01-26T17:14:13.256Z,102334.84
2023-01-26T17:16:40.340Z,102336.22
2023-01-26T17:19:09.100Z,102336.41
2023-01-26T17:21:36.381Z,102341.22
2023-01-26T17:24:03.506Z,102348.69
2023-01-26T17:26:30.323Z,102355.31
2023-01-26T17:28:57.321Z,102354.34
2023-01-26T17:31:25.168Z,102362.34
2023-01-26T17:33:52.436Z,102363.28
2023-01-26T17:36:19.814Z,102381.91
2023-01-26T17:38:48.570Z,102378.56
2023-01-26T17:41:16.511Z,102385.53
2023-01-26T17:43:43.360Z,102392.84
2023-01-26T17:46:14.228Z,102388.53
2023-01-26T17:48:44.859Z,102392.16
2023-01-26T17:51:18.729Z,102400.34
2023-01-26T17:53:48.201Z,102409.19
2023-01-26T17:56:19.359Z,102404.16
2023-01-26T17:58:55.794Z,102402.63
2023-01-26T18:01:25.277Z,102405.22
2023-01-26T18:03:53.827Z,102399.84
2023-01-26T18:06:21.187Z,102398.78
2023-01-26T18:08:48.667Z,102393.41
2023-01-26T18:11:16.737Z,102385.94
2023-01-26T18:13:44.698Z,102385.16
2023-01-26T18:16:17.896Z,102376.50
2023-01-26T18:18:45.812Z,102377.09
2023-01-26T18:21:22.873Z,102366.53
2023-01-26T18:23:53.794Z,102372.88
2023-01-26T18:26:23.688Z,102366.34
2023-01-26T18:28:50.883Z,102359.81
2023-01-26T18:31:30.558Z,102354.91
2023-01-26T18:33:59.476Z,102355.69
2023-01-26T18:36:27.923Z,102353.78
2023-01-26T18:39:06.141Z,102352.31
2023-01-26T18:41:34.124Z,102349.38
2023-01-26T18:44:03.893Z,102347.63
2023-01-26T18:46:33.399Z,102348.69
2023-01-26T18:49:03.763Z,102343.09
2023-01-26T18:51:34.729Z,102343.31
2023-01-26T18:54:04.357Z,102346.78
2023-01-26T18:56:31.649Z,102337.94
2023-01-26T18:58:58.967Z,102340.81
2023-01-26T19:01:26.561Z,102333.44
2023-01-26T19:03:57.811Z,102347.03
2023-01-26T19:06:26.288Z,102355.09
2023-01-26T19:09:01.036Z,102345.31
2023-01-26T19:11:32.268Z,102343.50
2023-01-26T19:14:00.660Z,102343.88
2023-01-26T19:16:29.769Z,102341.97
2023-01-26T19:18:56.787Z,102344.06
2023-01-26T19:21:25.193Z,102342.13
2023-01-26T19:23:54.514Z,102355.19
2023-01-26T19:26:29.671Z,102348.75
2023-01-26T19:28:57.033Z,102357.97
2023-01-26T19:31:26.604Z,102350.38
2023-01-26T19:33:56.837Z,102359.66
2023-01-26T19:36:25.099Z,102363.78
2023-01-26T19:38:52.389Z,102374.09
2023-01-26T19:41:20.805Z,102380.97
2023-01-26T19:43:48.833Z,102385.72
2023-01-26T19:46:16.639Z,102390.50
2023-01-26T19:48:44.739Z,102396.06
2023-01-26T19:51:15.531Z,102396.06
2023-01-26T19:53:46.169Z,102400.53
2023-01-26T19:56:26.124Z,102409.50
2023-01-26T19:58:56.480Z,102403.91
2023-01-26T20:01:25.405Z,102408.34
2023-01-26T20:03:59.296Z,102399.31
2023-01-26T20:06:29.525Z,102409.03
2023-01-26T20:08:57.071Z,102408.19
2023-01-26T20:11:25.359Z,102416.31
2023-01-26T20:14:11.698Z,102407.50
2023-01-26T20:16:38.865Z,102408.06
2023-01-26T20:19:06.424Z,102410.66
2023-01-26T20:21:34.213Z,102410.50
2023-01-26T20:24:05.778Z,102412.34
2023-01-26T20:26:34.470Z,102413.28
2023-01-26T20:29:01.469Z,102417.69
2023-01-26T20:31:28.363Z,102408.00
2023-01-26T20:33:55.872Z,102411.44
2023-01-26T20:36:27.494Z,102418.34
2023-01-26T20:38:54.921Z,102423.16
2023-01-26T20:41:27.396Z,102419.50
2023-01-26T20:44:00.366Z,102425.63
2023-01-26T20:46:37.742Z,102413.97
2023-01-26T20:49:08.889Z,102416.56
2023-01-26T20:51:38.388Z,102419.34
2023-01-26T20:54:07.411Z,102413.28
2023-01-26T20:56:35.872Z,102423.06
2023-01-26T20:59:04.637Z,102415.97
2023-01-26T21:01:34.006Z,102408.59
2023-01-26T21:04:02.367Z,102401.69
2023-01-26T21:06:30.400Z,102408.06
2023-01-26T21:09:00.129Z,102398.22
2023-01-26T21:11:30.863Z,102401.69
2023-01-26T21:14:01.873Z,102400.91
2023-01-26T21:16:30.872Z,102401.69
2023-01-26T21:18:57.792Z,102398.22
2023-01-26T21:21:25.606Z,102400.91
2023-01-26T21:23:52.609Z,102406.34
2023-01-26T21:26:25.543Z,102400.00
2023-01-26T21:28:55.209Z,102411.66
2023-01-26T21:31:25.592Z,102397.25
2023-01-26T21:33:53.244Z,102399.94
2023-01-26T21:36:27.154Z,102394.94
2023-01-26T21:38:57.095Z,102390.16
2023-01-26T21:41:49.448Z,102391.19
2023-01-26T21:44:20.229Z,102382.13
2023-01-26T21:46:50.870Z,102390.34
2023-01-26T21:49:18.278Z,102378.03
2023-01-26T21:52:04.209Z,102380.91
2023-01-26T21:54:31.920Z,102386.97
2023-01-26T21:56:59.415Z,102383.59
2023-01-26T21:59:26.491Z,102374.59
2023-01-26T22:01:56.205Z,102387.03
2023-01-26T22:04:30.162Z,102382.34
2023-01-26T22:06:57.402Z,102382.72
2023-01-26T22:09:24.964Z,102384.44
2023-01-26T22:11:52.224Z,102380.81
2023-01-26T22:14:26.163Z,102370.00
2023-01-26T22:16:53.332Z,102364.78
2023-01-26T22:19:20.370Z,102368.53
2023-01-26T22:21:50.439Z,102374.75
2023-01-26T22:24:18.182Z,102385.50
2023-01-26T22:26:45.179Z,102379.19
2023-01-26T22:29:13.320Z,102376.31
2023-01-26T22:31:40.343Z,102373.03
2023-01-26T22:34:07.275Z,102374.84
2023-01-26T22:36:34.109Z,102369.75
2023-01-26T22:39:01.153Z,102372.06
2023-01-26T22:41:30.254Z,102366.97
2023-01-26T22:43:59.774Z,102376.50
2023-01-26T22:46:29.240Z,102376.66
2023-01-26T22:48:58.575Z,102373.38
2023-01-26T22:51:29.022Z,102362.84
2023-01-26T22:53:58.359Z,102362.06
2023-01-26T22:56:26.508Z,102360.47
2023-01-26T22:58:59.391Z,102361.81
2023-01-26T23:01:32.519Z,102352.88
2023-01-26T23:04:01.460Z,102354.53
2023-01-26T23:06:29.326Z,102354.88
2023-01-26T23:08:58.211Z,102356.59
2023-01-26T23:11:28.736Z,102349.34
2023-01-26T23:13:58.496Z,102349.16
2023-01-26T23:16:26.750Z,102343.19
2023-01-26T23:18:56.412Z,102345.72
2023-01-26T23:21:24.592Z,102338.44
2023-01-26T23:23:51.567Z,102343.97
2023-01-26T23:26:18.700Z,102346.66
2023-01-26T23:28:45.781Z,102341.22
2023-01-26T23:31:15.733Z,102348.41
2023-01-26T23:33:43.514Z,102334.00
2023-01-26T23:36:12.474Z,102337.38
2023-01-26T23:38:39.491Z,102339.38
2023-01-26T23:41:08.611Z,102329.25
2023-01-26T23:43:36.189Z,102311.41
2023-01-26T23:46:05.021Z,102317.06
2023-01-26T23:48:32.064Z,102316.00
2023-01-26T23:51:18.945Z,102307.78
2023-01-26T23:53:45.768Z,102311.59
2023-01-26T23:56:17.580Z,102317.66
2023-01-26T23:58:45.910Z,102310.63
